»·PEaware :: N266SP KSNA-KVNY

N266SP :: KSNA-KVNY

FLIGHT INFORMATION

Flight Status: Arrived
Operator: Privately registered:
United States
More flights under this callsign
Pilot: David C. (16084)
Aircraft: CESSNA 172 SKYHAWK
(C172)
More flights by this aircraft type
Origin: KSNA John Wayne-Orange Co
United States
Destination: KVNY Van Nuys
United States
More flights between these airports :: More routes between these airports
Route: SLI V23 POPPR SMO125 SMO SMO317 CANOG
File this flight plan on PilotEdge
Remarks:
Altitude:
(Current/Filed)
4,000ft
Speed:
(Current/Filed)
112kts
Departed: 28-Jun-18 08:20 AM
Arrived: 28-Jun-18 09:02 AM
Distance/Time
Traveled:
44nm/0:42
Distance/Time
To Go:
Arrived

Flight Plot

Page will automatically refresh every two minutes.


Map Options




Map Legend


Flown Route
Filed Route
Departure Airport
Arrival Airport
Navaid (VOR, NDB)
Fix

Horizontal Profiles

Position Reports

Time Latitude Longitude Heading Altitude Ground
Speed
28-Jun-18 08:06 33.672471 -117.867201 210 60ft 0kts
28-Jun-18 08:07 33.672471 -117.867201 210 60ft 0kts
28-Jun-18 08:08 33.672471 -117.867201 210 60ft 0kts
28-Jun-18 08:09 33.672471 -117.867201 210 60ft 0kts
28-Jun-18 08:10 33.672471 -117.867201 210 60ft 0kts
28-Jun-18 08:11 33.672471 -117.867201 210 60ft 0kts
28-Jun-18 08:12 33.672471 -117.867201 210 60ft 0kts
28-Jun-18 08:13 33.672471 -117.867201 210 60ft 0kts
28-Jun-18 08:14 33.672471 -117.867201 210 60ft 0kts
28-Jun-18 08:15 33.672569 -117.867635 16 60ft 9kts
28-Jun-18 08:16 33.676635 -117.864876 28 60ft 21kts
28-Jun-18 08:17 33.679921 -117.863609 296 60ft 0kts
28-Jun-18 08:18 33.679921 -117.863609 296 60ft 0kts
28-Jun-18 08:19 33.679961 -117.863714 293 60ft 5kts
28-Jun-18 08:20 33.670713 -117.870814 214 420ft 69kts
28-Jun-18 08:21 33.659256 -117.887946 236 1283ft 70kts
28-Jun-18 08:22 33.647305 -117.907953 235 2054ft 74kts
28-Jun-18 08:23 33.637218 -117.928711 235 2772ft 80kts
28-Jun-18 08:24 33.625194 -117.953344 238 3379ft 88kts
28-Jun-18 08:25 33.638549 -117.975526 330 3943ft 96kts
28-Jun-18 08:26 33.663754 -117.989831 332 4173ft 110kts
28-Jun-18 08:27 33.691000 -118.005409 331 4018ft 118kts
28-Jun-18 08:28 33.722254 -118.023469 332 4016ft 125kts
28-Jun-18 08:29 33.754090 -118.040228 335 4015ft 125kts
28-Jun-18 08:30 33.783100 -118.060126 289 4013ft 120kts
28-Jun-18 08:31 33.795339 -118.097321 284 4014ft 119kts
28-Jun-18 08:32 33.804905 -118.135484 284 4015ft 119kts
28-Jun-18 08:33 33.814230 -118.173445 283 4017ft 118kts
28-Jun-18 08:34 33.823646 -118.211418 284 3991ft 118kts
28-Jun-18 08:35 33.833249 -118.249500 289 3991ft 119kts
28-Jun-18 08:36 33.843915 -118.287300 311 3988ft 119kts
28-Jun-18 08:37 33.868459 -118.313431 321 3993ft 120kts
28-Jun-18 08:38 33.895023 -118.340172 321 3995ft 127kts
28-Jun-18 08:39 33.922248 -118.367537 320 3996ft 128kts
28-Jun-18 08:40 33.949450 -118.394911 319 3996ft 128kts
28-Jun-18 08:41 33.976698 -118.422355 318 3996ft 128kts
28-Jun-18 08:42 34.003919 -118.449790 318 3996ft 127kts
28-Jun-18 08:43 34.034257 -118.471692 330 3996ft 127kts
28-Jun-18 08:44 34.065419 -118.491749 330 3996ft 127kts
28-Jun-18 08:45 34.093948 -118.510145 330 4570ft 111kts
28-Jun-18 08:46 34.121310 -118.524619 352 4966ft 121kts
28-Jun-18 08:47 34.157178 -118.529096 353 4963ft 134kts
28-Jun-18 08:48 34.193468 -118.534089 353 4963ft 130kts
28-Jun-18 08:49 34.229153 -118.539564 353 4963ft 129kts
28-Jun-18 08:50 34.264759 -118.545493 353 4963ft 129kts
28-Jun-18 08:51 34.300160 -118.551519 353 4963ft 129kts
28-Jun-18 08:52 34.335674 -118.557672 353 4963ft 129kts
28-Jun-18 08:53 34.371113 -118.563917 353 4963ft 129kts
28-Jun-18 08:54 34.406474 -118.568952 17 4956ft 127kts
28-Jun-18 08:55 34.407829 -118.536645 139 4960ft 115kts
28-Jun-18 08:56 34.381749 -118.514102 141 4963ft 115kts
28-Jun-18 08:57 34.353851 -118.499045 186 4301ft 116kts
28-Jun-18 08:58 34.321610 -118.499564 175 3535ft 117kts
28-Jun-18 08:59 34.289016 -118.496952 174 2721ft 118kts
28-Jun-18 09:00 34.256275 -118.494163 174 1898ft 119kts
28-Jun-18 09:01 34.225523 -118.491861 176 1105ft 97kts
28-Jun-18 09:02 34.206747 -118.490160 187 806ft 30kts

Navigation Log

Ident Type
Flight plan parsing failed, navigation log unavailable